CO59 weather

Hay Fever Farm Airport
Galeton, Colorado, United States

Public forecast

Using degrees Fahrenheit for public forecast. Weather courtesy of forecast.io.

METAR (pilot weather report)

Closest report is Greeley–Weld County Airport, 7.2 nm (13.4 km) SSW. Retrieved 2019/08/24 23:56 UTC (20 minutes ago):

KGXY 242356Z AUTO 07007KT 10SM 29/08 A2997 RMK AO2 SLP104 T02940078 10317 20244 55003 $

TAF (pilot weather forecast)

Forecast is more than 12 hours old.

Closest forecast is Cheyenne Regional Jerry Olson Field, 38.3 nm (71.0 km) NNW. Retrieved 2019/08/24 00:22 UTC (24 hours ago):

TAF KCYS 242320Z 2500/2524 35012G23KT P6SM SKC FM250200 20009KT P6SM SKC FM250600 27010KT P6SM SKC FM251500 30022G33KT P6SM SKC